Etusivu
METAR-TAF:

METAR-TAF

Lentoasemat :

Van, Turkki

Leveyspiiri: 38-27N, Pituuspiiri: 043-19E, korkeus merenpinnasta: 1667 m

Tämänhetkinen sää

Tämä raportti tehtiin 1 tunti ja 1 minuuttia sitten, kello 05.50 UTC
Tuuli 4 kn idästä/koillisesta, vaihdellen pohjoisen ja idän/kaakon välillä
Lämpötila 8°C
Kosteus 71%
Ilmanpaine 1012 hPa
Näkyvyys 10 km tai enemmän
Hajanaisia pilviä 3500 ft:n korkeudessa
Hajonneita pilviä 7000 ft:n korkeudessa

METAR: LTCI 020550Z 06004KT 010V110 9999 SCT035 BKN070 08/03 Q1012 NOSIG

Aika: 09:51 (06:51 UTC)

Sääennuste

Tämä raportti tehtiin 2 tuntia ja 11 minuuttia sitten, kello 04.40 UTC
Ennuste voimassa 02. päivästä klo 06 UTC - 02. päivään klo 15 UTC
Tuuli 8 kn lännestä/luoteesta
Näkyvyys 10 km tai enemmän
Hajanaisia pilviä 3000 ft:n korkeudessa
Hajonneita pilviä 7000 ft:n korkeudessa

TAF: LTCI 020440Z 0206/0215 30008KT 9999 SCT030 BKN070

Säähavainnot ja -ennusteet yli 4000 lentoasemalta (METAR- ja TAF-raportit).

Käytössä olevat sääasemat on merkitty karttaan keltaisilla ja punaisilla pisteillä.

Aseta hiiri pisteen päälle nähdäksesi sääaseman nimen.

Klikkaa sitten nähdäksesi säähavainnot ja -ennusteet.

Kartan vaihtaminen: klikkaa mustalla rastilla varustettuja vihreitä pisteitä, niin voit zoomata sisään; viivalla varustettua vihreää pistettä, niin voit zoomata ulos tai vihreitä nuolia, niin pääset viereisille kartoille.


METAR-TAF: